Terminal Aerodrome Forecast
Issued by NWS

Home | Current Version | Previous Version | Text Only | Print | Product List | Glossary On
Versions: 1 2 3 4 5 6 7 8 9 10 11 12 13 14
000
FTUS42 TJSJ 040539
TAFJSJ
TAF
TJSJ 040539Z 0406/0506 08014G21KT P6SM VCSH FEW025 BKN060
     FM041330 07020KT P6SM SCT025 SCT040
     FM042300 08012KT P6SM VCSH FEW025 SCT050=

USA.gov is the U.S. government's official web portal to all federal, state and local government web resources and services.